Time;durP1;ratioP1;P1;durP2;ratioP2;P2;SDS_P1;SDS_P2;PMS_P1;PMS_P2;Temp;Humidity;BMP_temperature;BMP_pressure;BME280_temperature;BME280_humidity;BME280_pressure;Samples;Min_cycle;Max_cycle;Signal;HPM_P1;HPM_P2
2021/08/03 00:02:52;;;;;;;6.28;2.65;;;;;;;;;;8181477;28;20449;-74
2021/08/03 00:06:57;;;;;;;3.93;2.67;;;;;;;;;;8135190;28;20068;-74
2021/08/03 00:11:06;;;;;;;11.07;2.67;;;;;;;;;;8160193;28;20477;-74
2021/08/03 00:15:12;;;;;;;16.23;5.10;;;;;;;;;;8158483;28;20068;-74
2021/08/03 00:19:17;;;;;;;7.45;2.42;;;;;;;;;;8159227;28;20342;-74
2021/08/03 00:23:22;;;;;;;5.43;2.10;;;;;;;;;;8158403;28;20480;-74
2021/08/03 00:27:27;;;;;;;3.53;2.17;;;;;;;;;;8157736;28;20060;-74
2021/08/03 00:31:32;;;;;;;6.20;2.20;;;;;;;;;;8158725;28;20482;-74
2021/08/03 00:35:38;;;;;;;4.18;2.47;;;;;;;;;;8158435;28;20373;-74
2021/08/03 00:39:45;;;;;;;3.50;2.57;;;;;;;;;;8158487;28;20069;-74
2021/08/03 00:43:53;;;;;;;;;;;;;;;;;;8144531;28;20469;-73
2021/08/03 00:47:59;;;;;;;5.07;2.33;;;;;;;;;;8160015;28;20355;-74
2021/08/03 00:52:09;;;;;;;7.70;3.08;;;;;;;;;;8160879;28;20446;-74
2021/08/03 00:56:16;;;;;;;4.45;2.58;;;;;;;;;;8158254;28;20496;-74
2021/08/03 01:00:23;;;;;;;2.80;2.05;;;;;;;;;;8159289;28;20482;-74
2021/08/03 01:04:28;;;;;;;6.43;2.60;;;;;;;;;;8159762;28;20473;-74
2021/08/03 01:08:58;;;;;;;4.55;3.15;;;;;;;;;;8158211;28;20401;-74
2021/08/03 01:13:11;;;;;;;15.60;4.20;;;;;;;;;;8157441;28;20539;-74
2021/08/03 01:17:26;;;;;;;5.25;2.55;;;;;;;;;;8148927;28;20461;-74
2021/08/03 01:21:54;;;;;;;6.97;2.45;;;;;;;;;;8149736;28;20361;-74
2021/08/03 01:26:03;;;;;;;7.67;2.63;;;;;;;;;;8148488;28;20504;-74
2021/08/03 01:30:08;;;;;;;3.85;2.38;;;;;;;;;;8147236;28;20487;-74
2021/08/03 01:34:15;;;;;;;6.28;2.63;;;;;;;;;;8164729;28;20357;-74
2021/08/03 01:38:25;;;;;;;5.70;2.60;;;;;;;;;;8162790;28;20046;-75
2021/08/03 01:42:30;;;;;;;4.80;2.83;;;;;;;;;;8164444;28;20409;-74
2021/08/03 01:46:36;;;;;;;5.60;2.63;;;;;;;;;;8148203;28;20362;-74
2021/08/03 01:50:42;;;;;;;2.67;2.20;;;;;;;;;;8162534;28;20477;-74
2021/08/03 01:54:48;;;;;;;3.65;2.38;;;;;;;;;;8146130;28;20395;-74
2021/08/03 01:58:56;;;;;;;5.28;2.45;;;;;;;;;;8162539;28;20378;-74
2021/08/03 02:03:06;;;;;;;3.63;2.42;;;;;;;;;;8163262;28;20481;-74
2021/08/03 02:07:16;;;;;;;3.83;2.58;;;;;;;;;;8147089;28;20500;-74
2021/08/03 02:11:30;;;;;;;7.60;2.60;;;;;;;;;;8161497;28;20395;-74
2021/08/03 02:15:38;;;;;;;4.20;2.22;;;;;;;;;;8161356;28;20377;-74
2021/08/03 02:19:44;;;;;;;5.20;3.05;;;;;;;;;;8163342;28;20361;-74
2021/08/03 02:23:51;;;;;;;8.43;2.80;;;;;;;;;;8162225;28;20401;-74
2021/08/03 02:28:02;;;;;;;7.72;3.35;;;;;;;;;;8162876;28;20477;-74
2021/08/03 02:32:16;;;;;;;;;;;;;;;;;;8164942;28;20373;-74
2021/08/03 02:36:22;;;;;;;6.13;2.88;;;;;;;;;;8163188;28;20269;-74
2021/08/03 02:40:32;;;;;;;6.25;2.13;;;;;;;;;;8129990;28;20504;-74
2021/08/03 02:44:44;;;;;;;4.50;2.83;;;;;;;;;;8147154;28;20489;-74
2021/08/03 02:49:00;;;;;;;4.07;2.47;;;;;;;;;;8129471;28;20474;-74
2021/08/03 02:53:12;;;;;;;4.10;2.30;;;;;;;;;;8161173;28;20481;-74
2021/08/03 02:57:19;;;;;;;5.30;2.58;;;;;;;;;;8162446;28;20504;-75
2021/08/03 03:01:27;;;;;;;6.18;1.80;;;;;;;;;;8160332;28;20082;-74
2021/08/03 03:05:37;;;;;;;3.50;2.30;;;;;;;;;;8144336;28;20365;-74
2021/08/03 03:09:44;;;;;;;4.37;2.50;;;;;;;;;;8144336;28;20489;-73
2021/08/03 03:13:54;;;;;;;5.47;2.28;;;;;;;;;;8144037;28;20820;-74
2021/08/03 03:18:01;;;;;;;2.67;1.80;;;;;;;;;;8160147;28;20374;-74
2021/08/03 03:22:07;;;;;;;2.78;1.77;;;;;;;;;;8144851;28;20504;-74
2021/08/03 03:26:16;;;;;;;4.95;2.05;;;;;;;;;;8160338;28;20351;-74
2021/08/03 03:30:22;;;;;;;5.00;2.38;;;;;;;;;;8159939;28;20050;-74
2021/08/03 03:34:29;;;;;;;3.47;1.98;;;;;;;;;;8143011;28;20485;-74
2021/08/03 03:38:38;;;;;;;7.68;1.80;;;;;;;;;;8158587;28;20434;-74
2021/08/03 03:42:44;;;;;;;4.10;2.72;;;;;;;;;;8143291;28;20346;-74
2021/08/03 03:46:59;;;;;;;3.72;2.55;;;;;;;;;;8158748;28;20355;-74
2021/08/03 03:51:08;;;;;;;12.07;7.90;;;;;;;;;;8144216;28;20070;-75
2021/08/03 03:55:16;;;;;;;8.68;4.40;;;;;;;;;;8158427;28;20793;-74
2021/08/03 03:59:23;;;;;;;8.32;3.00;;;;;;;;;;8160705;28;20375;-74
2021/08/03 04:03:29;;;;;;;7.90;2.30;;;;;;;;;;8160012;28;20082;-73
2021/08/03 04:07:36;;;;;;;7.32;2.45;;;;;;;;;;8160345;28;20450;-74
2021/08/03 04:11:47;;;;;;;7.43;2.25;;;;;;;;;;8158473;28;20385;-74
2021/08/03 04:15:53;;;;;;;5.50;2.00;;;;;;;;;;8162232;28;20373;-73
2021/08/03 04:19:59;;;;;;;6.30;2.28;;;;;;;;;;8143345;28;20459;-73
2021/08/03 04:24:04;;;;;;;4.10;2.33;;;;;;;;;;8158334;28;20416;-73
2021/08/03 04:28:10;;;;;;;6.05;2.78;;;;;;;;;;8159104;28;20064;-74
2021/08/03 04:32:14;;;;;;;4.20;2.25;;;;;;;;;;8160133;28;20377;-74
2021/08/03 04:36:19;;;;;;;4.40;2.58;;;;;;;;;;8160044;28;20494;-73
2021/08/03 04:40:25;;;;;;;4.47;2.58;;;;;;;;;;8159608;28;20315;-73
2021/08/03 04:44:30;;;;;;;5.40;2.50;;;;;;;;;;8161771;28;20448;-73
2021/08/03 04:48:35;;;;;;;7.05;2.97;;;;;;;;;;8161600;28;20347;-73
2021/08/03 04:52:40;;;;;;;12.02;3.85;;;;;;;;;;8164543;28;20050;-73
2021/08/03 04:56:45;;;;;;;6.60;3.38;;;;;;;;;;8147220;28;20366;-74
2021/08/03 05:00:52;;;;;;;8.65;3.97;;;;;;;;;;8164918;28;20390;-73
2021/08/03 05:04:57;;;;;;;6.38;4.43;;;;;;;;;;8165189;28;20362;-73
2021/08/03 05:09:02;;;;;;;11.85;5.25;;;;;;;;;;8163198;28;20372;-74
2021/08/03 05:13:07;;;;;;;8.60;5.35;;;;;;;;;;8148915;28;20380;-74
2021/08/03 05:17:11;;;;;;;11.95;5.95;;;;;;;;;;8164042;28;20057;-74
2021/08/03 05:22:14;;;;;;;9.68;6.15;;;;;;;;;;8209163;28;1242686;-74
2021/08/03 05:26:20;;;;;;;9.85;6.53;;;;;;;;;;8319632;28;20320;-74
2021/08/03 05:30:25;;;;;;;14.23;6.88;;;;;;;;;;8301424;28;20040;-74
2021/08/03 05:34:30;;;;;;;17.23;7.13;;;;;;;;;;8317284;28;20471;-74
2021/08/03 05:38:35;;;;;;;11.65;6.95;;;;;;;;;;8316425;28;20500;-73
2021/08/03 05:42:40;;;;;;;10.57;6.57;;;;;;;;;;8319698;28;20443;-74
2021/08/03 05:46:47;;;;;;;12.70;5.80;;;;;;;;;;8316831;28;20359;-74
2021/08/03 05:50:50;;;;;;;11.27;6.28;;;;;;;;;;8317943;28;20459;-73
2021/08/03 05:54:55;;;;;;;11.43;6.15;;;;;;;;;;8320121;28;20348;-73
2021/08/03 05:59:00;;;;;;;11.27;6.55;;;;;;;;;;8318321;28;20478;-74
2021/08/03 06:03:05;;;;;;;11.48;6.80;;;;;;;;;;8317294;28;20467;-74
2021/08/03 06:07:10;;;;;;;19.13;6.57;;;;;;;;;;8316562;28;20376;-74
2021/08/03 06:11:25;;;;;;;10.48;6.40;;;;;;;;;;8317771;28;20041;-73
2021/08/03 06:15:34;;;;;;;12.30;7.30;;;;;;;;;;8264847;28;20074;-73
2021/08/03 06:19:49;;;;;;;30.85;14.75;;;;;;;;;;8315419;28;20074;-73
2021/08/03 06:23:54;;;;;;;17.70;7.05;;;;;;;;;;8317438;28;20066;-74
2021/08/03 06:27:59;;;;;;;12.00;5.97;;;;;;;;;;8316747;28;20375;-74
2021/08/03 06:32:07;;;;;;;12.13;5.78;;;;;;;;;;8304979;28;20337;-74
2021/08/03 06:36:12;;;;;;;9.82;6.05;;;;;;;;;;8276897;28;20437;-72
2021/08/03 06:40:17;;;;;;;13.93;5.90;;;;;;;;;;8295390;28;20370;-73
2021/08/03 06:44:23;;;;;;;12.82;6.15;;;;;;;;;;8294360;28;20102;-73
2021/08/03 06:48:49;;;;;;;10.77;5.07;;;;;;;;;;8260769;28;20494;-73
2021/08/03 06:52:55;;;;;;;13.35;5.63;;;;;;;;;;8293163;28;20355;-73
2021/08/03 06:57:09;;;;;;;9.93;3.95;;;;;;;;;;8293488;28;20479;-73
2021/08/03 07:01:19;;;;;;;9.18;4.18;;;;;;;;;;8293860;28;20348;-73
2021/08/03 07:05:29;;;;;;;8.20;3.50;;;;;;;;;;8292758;28;20483;-72
2021/08/03 07:09:34;;;;;;;5.60;3.92;;;;;;;;;;8291973;28;20483;-72
2021/08/03 07:13:39;;;;;;;9.82;3.85;;;;;;;;;;8276519;28;20466;-73
2021/08/03 07:20:43;;;;;;;6.53;3.28;;;;;;;;;;8101890;27;20490;-73
2021/08/03 07:24:48;;;;;;;5.22;3.25;;;;;;;;;;8238897;28;20486;-73
2021/08/03 07:28:53;;;;;;;7.65;3.53;;;;;;;;;;8253645;28;20376;-72
2021/08/03 07:32:58;;;;;;;7.70;3.30;;;;;;;;;;8252555;28;20067;-73
2021/08/03 07:37:04;;;;;;;7.68;3.25;;;;;;;;;;8251740;28;20440;-72
2021/08/03 07:43:20;;;;;;;5.70;2.90;;;;;;;;;;8212867;27;1250504;-72
2021/08/03 07:47:25;;;;;;;6.60;3.28;;;;;;;;;;8178162;28;20372;-72
2021/08/03 07:51:31;;;;;;;11.43;3.22;;;;;;;;;;8237466;28;20457;-72
2021/08/03 07:55:36;;;;;;;5.25;3.00;;;;;;;;;;8254423;28;20364;-72
2021/08/03 07:59:41;;;;;;;8.20;3.22;;;;;;;;;;8237082;28;20380;-73
2021/08/03 08:03:46;;;;;;;9.90;3.53;;;;;;;;;;8178326;28;20096;-73
2021/08/03 08:07:56;;;;;;;6.70;3.40;;;;;;;;;;8201541;28;20408;-72
2021/08/03 08:12:01;;;;;;;9.10;3.38;;;;;;;;;;8195936;28;20482;-73
2021/08/03 08:16:06;;;;;;;13.05;4.18;;;;;;;;;;8235153;28;20395;-72
2021/08/03 08:20:13;;;;;;;12.63;3.05;;;;;;;;;;8256346;28;20049;-72
2021/08/03 08:24:18;;;;;;;7.43;3.00;;;;;;;;;;8251622;28;20105;-72
2021/08/03 08:28:23;;;;;;;9.35;3.53;;;;;;;;;;8251931;28;20464;-74
2021/08/03 08:32:28;;;;;;;6.35;3.42;;;;;;;;;;8250645;28;20449;-72
2021/08/03 08:36:33;;;;;;;7.53;3.00;;;;;;;;;;8268604;28;20361;-72
2021/08/03 08:40:38;;;;;;;5.03;2.63;;;;;;;;;;8251564;28;20061;-72
2021/08/03 08:44:48;;;;;;;4.95;2.33;;;;;;;;;;8250631;28;20407;-72
2021/08/03 08:48:53;;;;;;;3.95;1.88;;;;;;;;;;8254302;28;20068;-72
2021/08/03 08:52:57;;;;;;;3.58;1.75;;;;;;;;;;8238684;28;20480;-74
2021/08/03 08:57:02;;;;;;;1.88;1.17;;;;;;;;;;8245644;28;20049;-73
2021/08/03 09:01:08;;;;;;;3.50;0.90;;;;;;;;;;8231361;28;20497;-73
2021/08/03 09:05:17;;;;;;;1.63;1.10;;;;;;;;;;8231013;28;20499;-73
2021/08/03 09:09:22;;;;;;;1.85;1.00;;;;;;;;;;8228569;28;20412;-73
2021/08/03 09:13:28;;;;;;;6.72;1.10;;;;;;;;;;8230254;28;20473;-73
2021/08/03 09:17:32;;;;;;;2.35;1.00;;;;;;;;;;8244880;28;20468;-74
2021/08/03 09:21:37;;;;;;;1.10;0.90;;;;;;;;;;8244215;28;20411;-72
2021/08/03 09:25:54;;;;;;;1.85;0.90;;;;;;;;;;8229198;28;20514;-72
2021/08/03 09:29:59;;;;;;;4.47;0.95;;;;;;;;;;8244088;28;20683;-72
2021/08/03 09:34:15;;;;;;;2.72;1.00;;;;;;;;;;8232533;28;20342;-72
2021/08/03 09:38:21;;;;;;;9.18;1.20;;;;;;;;;;8231165;28;20105;-74
2021/08/03 09:42:27;;;;;;;0.70;0.70;;;;;;;;;;8230003;28;20398;-72
2021/08/03 09:46:32;;;;;;;0.75;0.70;;;;;;;;;;8230111;28;20482;-72
2021/08/03 09:51:08;;;;;;;0.90;0.70;;;;;;;;;;8229785;28;20468;-73
2021/08/03 09:55:13;;;;;;;1.45;0.80;;;;;;;;;;8242482;28;20487;-72
2021/08/03 09:59:33;;;;;;;1.05;0.70;;;;;;;;;;8227678;28;20053;-72
2021/08/03 10:03:38;;;;;;;2.55;1.05;;;;;;;;;;8224176;28;20445;-73
2021/08/03 10:07:43;;;;;;;1.75;0.80;;;;;;;;;;8242459;28;20042;-72
2021/08/03 10:11:49;;;;;;;1.00;0.70;;;;;;;;;;8224409;28;20072;-73
2021/08/03 10:16:02;;;;;;;1.80;0.93;;;;;;;;;;8240978;28;20358;-73
2021/08/03 10:20:12;;;;;;;2.67;0.80;;;;;;;;;;8241842;28;20495;-74
2021/08/03 10:24:25;;;;;;;2.75;0.80;;;;;;;;;;8230434;28;20491;-73
2021/08/03 10:28:30;;;;;;;1.58;0.80;;;;;;;;;;8225076;28;20503;-74
2021/08/03 10:32:42;;;;;;;0.95;0.63;;;;;;;;;;8240805;28;20368;-73
2021/08/03 10:36:51;;;;;;;1.52;0.90;;;;;;;;;;8223164;28;20479;-72
2021/08/03 10:40:57;;;;;;;1.35;0.80;;;;;;;;;;8224737;28;20393;-73
2021/08/03 10:45:02;;;;;;;1.80;0.95;;;;;;;;;;8224133;28;20502;-72
2021/08/03 10:49:06;;;;;;;2.13;0.90;;;;;;;;;;8225177;28;20372;-73
2021/08/03 10:53:11;;;;;;;4.25;1.48;;;;;;;;;;8207514;28;20468;-74
2021/08/03 10:57:16;;;;;;;1.23;1.00;;;;;;;;;;8240787;28;20356;-72
2021/08/03 11:01:48;;;;;;;1.77;0.90;;;;;;;;;;8242986;28;20067;-73
2021/08/03 11:05:53;;;;;;;2.75;1.30;;;;;;;;;;8221608;28;20349;-73
2021/08/03 11:10:25;;;;;;;1.50;0.90;;;;;;;;;;8226312;28;20490;-73
2021/08/03 11:14:30;;;;;;;1.45;0.82;;;;;;;;;;8223447;28;20511;-72
2021/08/03 11:18:43;;;;;;;2.83;0.70;;;;;;;;;;8226135;28;20053;-72
2021/08/03 11:22:51;;;;;;;2.08;1.10;;;;;;;;;;8223624;28;20376;-72
2021/08/03 11:26:58;;;;;;;4.45;1.10;;;;;;;;;;8222601;28;20372;-72
2021/08/03 11:31:02;;;;;;;1.20;1.10;;;;;;;;;;8223397;28;20045;-73
2021/08/03 11:35:08;;;;;;;1.55;0.80;;;;;;;;;;8223069;28;20405;-72
2021/08/03 11:39:26;;;;;;;2.35;1.30;;;;;;;;;;8223630;28;20380;-73
2021/08/03 11:43:30;;;;;;;5.80;1.20;;;;;;;;;;8206242;28;20477;-73
2021/08/03 11:47:49;;;;;;;1.73;1.00;;;;;;;;;;8191068;28;20476;-72
2021/08/03 11:52:21;;;;;;;1.88;0.93;;;;;;;;;;8206014;28;20363;-73
2021/08/03 11:56:32;;;;;;;2.63;1.00;;;;;;;;;;8191921;28;20369;-72
2021/08/03 12:00:37;;;;;;;3.47;1.00;;;;;;;;;;8191392;28;20381;-73
2021/08/03 12:04:43;;;;;;;0.90;0.80;;;;;;;;;;8190254;28;20389;-73
2021/08/03 12:08:48;;;;;;;1.20;0.80;;;;;;;;;;8205144;28;20034;-73
2021/08/03 12:13:09;;;;;;;3.42;0.77;;;;;;;;;;8190055;28;20495;-72
2021/08/03 12:17:41;;;;;;;1.75;0.80;;;;;;;;;;8189016;28;20385;-73
2021/08/03 12:21:46;;;;;;;1.48;0.70;;;;;;;;;;8191621;28;20377;-73
2021/08/03 12:25:56;;;;;;;2.53;1.15;;;;;;;;;;8191196;28;20358;-72
2021/08/03 12:30:01;;;;;;;1.15;0.95;;;;;;;;;;8116167;28;20062;-72
2021/08/03 12:34:18;;;;;;;1.05;0.75;;;;;;;;;;8196762;28;20046;-74
2021/08/03 12:38:23;;;;;;;1.02;0.68;;;;;;;;;;8212469;28;20368;-72
2021/08/03 12:42:34;;;;;;;1.95;1.00;;;;;;;;;;8234959;28;20072;-72
2021/08/03 12:46:39;;;;;;;2.45;0.70;;;;;;;;;;8229271;28;20337;-72
2021/08/03 12:50:51;;;;;;;1.35;1.05;;;;;;;;;;8227359;28;20478;-72
2021/08/03 12:54:58;;;;;;;0.80;0.70;;;;;;;;;;8243703;28;20483;-72
2021/08/03 12:59:03;;;;;;;0.60;0.60;;;;;;;;;;8230662;28;20453;-72
2021/08/03 13:03:16;;;;;;;3.63;0.60;;;;;;;;;;8244612;28;20357;-73
2021/08/03 13:07:21;;;;;;;3.28;0.80;;;;;;;;;;8228499;28;20484;-71
2021/08/03 13:11:26;;;;;;;7.53;1.10;;;;;;;;;;8226982;28;20364;-73
2021/08/03 13:15:31;;;;;;;1.63;1.00;;;;;;;;;;8229985;28;20484;-72
2021/08/03 13:19:36;;;;;;;1.88;1.00;;;;;;;;;;8227446;28;20045;-73
2021/08/03 13:23:45;;;;;;;1.90;0.90;;;;;;;;;;8241010;28;20415;-72
2021/08/03 13:27:50;;;;;;;0.75;0.60;;;;;;;;;;8241517;28;20404;-72
2021/08/03 13:31:55;;;;;;;1.25;0.63;;;;;;;;;;8229542;28;20399;-72
2021/08/03 13:35:59;;;;;;;1.75;0.90;;;;;;;;;;8227820;28;20484;-73
2021/08/03 13:40:06;;;;;;;1.38;0.70;;;;;;;;;;8227751;28;20376;-72
2021/08/03 13:44:10;;;;;;;0.82;0.68;;;;;;;;;;8242563;28;20476;-72
2021/08/03 13:48:16;;;;;;;1.05;0.68;;;;;;;;;;8226339;28;20337;-72
2021/08/03 13:52:21;;;;;;;2.47;0.93;;;;;;;;;;8227301;28;20042;-72
2021/08/03 13:56:26;;;;;;;2.25;0.75;;;;;;;;;;8240820;28;20487;-72
2021/08/03 14:00:31;;;;;;;1.42;0.95;;;;;;;;;;8225948;28;20400;-73
2021/08/03 14:04:38;;;;;;;1.88;0.73;;;;;;;;;;8227898;28;20375;-71
2021/08/03 14:08:42;;;;;;;1.95;0.90;;;;;;;;;;8208687;28;20471;-72
2021/08/03 14:12:47;;;;;;;6.43;1.00;;;;;;;;;;8227774;28;20365;-72
2021/08/03 14:16:54;;;;;;;1.27;0.90;;;;;;;;;;8226916;28;20463;-72
2021/08/03 14:20:59;;;;;;;3.42;0.70;;;;;;;;;;8227700;28;20049;-73
2021/08/03 14:25:04;;;;;;;1.35;0.80;;;;;;;;;;8226140;28;20361;-72
2021/08/03 14:29:10;;;;;;;2.53;1.00;;;;;;;;;;8241581;28;20534;-72
2021/08/03 14:33:14;;;;;;;1.38;1.02;;;;;;;;;;8226535;28;20499;-72
2021/08/03 14:37:19;;;;;;;1.98;1.10;;;;;;;;;;8241342;28;20049;-72
2021/08/03 14:41:24;;;;;;;3.42;1.27;;;;;;;;;;8224905;28;20537;-72
2021/08/03 14:45:29;;;;;;;3.35;1.23;;;;;;;;;;8241113;28;20041;-72
2021/08/03 14:49:34;;;;;;;5.68;2.38;;;;;;;;;;8223972;28;20324;-72
2021/08/03 14:53:40;;;;;;;8.07;2.75;;;;;;;;;;8225891;28;20498;-72
2021/08/03 14:57:45;;;;;;;5.07;1.90;;;;;;;;;;8227470;28;20484;-71
2021/08/03 15:01:50;;;;;;;2.05;1.30;;;;;;;;;;8225986;28;20041;-72
2021/08/03 15:05:55;;;;;;;3.38;1.42;;;;;;;;;;8223546;28;20430;-72
2021/08/03 15:10:00;;;;;;;2.47;1.30;;;;;;;;;;8224612;28;20492;-72
2021/08/03 15:14:04;;;;;;;4.38;1.50;;;;;;;;;;8223972;28;20488;-73
2021/08/03 15:18:10;;;;;;;2.63;1.40;;;;;;;;;;8226168;28;20151;-72
2021/08/03 15:22:14;;;;;;;5.72;1.08;;;;;;;;;;8225718;28;20471;-72
2021/08/03 15:26:19;;;;;;;2.35;1.08;;;;;;;;;;8224324;28;20053;-73
2021/08/03 15:30:24;;;;;;;10.25;2.13;;;;;;;;;;8224783;28;20155;-72
2021/08/03 15:34:30;;;;;;;3.40;1.48;;;;;;;;;;8225112;28;20399;-73
2021/08/03 15:38:35;;;;;;;5.32;1.55;;;;;;;;;;8224435;28;20061;-72
2021/08/03 15:42:40;;;;;;;2.30;1.20;;;;;;;;;;8226236;28;20392;-72
2021/08/03 15:48:01;;;;;;;8.30;1.33;;;;;;;;;;8265669;27;1435628;-72
2021/08/03 15:52:07;;;;;;;9.15;2.10;;;;;;;;;;8231750;28;20486;-72
2021/08/03 15:56:12;;;;;;;8.88;2.10;;;;;;;;;;8238712;28;20376;-72
2021/08/03 16:00:17;;;;;;;3.72;1.60;;;;;;;;;;8254340;28;20392;-71
2021/08/03 16:04:22;;;;;;;7.90;1.65;;;;;;;;;;8252581;28;20363;-72
2021/08/03 16:08:27;;;;;;;3.03;1.40;;;;;;;;;;8201042;28;20390;-72
2021/08/03 16:12:35;;;;;;;4.72;1.80;;;;;;;;;;8251720;28;20329;-72
2021/08/03 16:16:40;;;;;;;4.88;1.75;;;;;;;;;;8252090;28;20154;-71
2021/08/03 16:20:46;;;;;;;2.50;1.35;;;;;;;;;;8234836;28;20080;-72
2021/08/03 16:24:51;;;;;;;4.60;1.80;;;;;;;;;;8254095;28;20053;-72
2021/08/03 16:28:57;;;;;;;4.70;1.90;;;;;;;;;;8252977;28;20060;-71
2021/08/03 16:33:04;;;;;;;4.80;1.70;;;;;;;;;;8185233;28;20354;-72
2021/08/03 16:37:10;;;;;;;16.80;2.38;;;;;;;;;;8251628;28;20107;-74
2021/08/03 16:41:16;;;;;;;5.37;2.07;;;;;;;;;;8232959;28;20495;-74
2021/08/03 16:45:21;;;;;;;7.55;1.80;;;;;;;;;;8250083;28;20484;-75
2021/08/03 16:49:26;;;;;;;6.72;1.80;;;;;;;;;;8251186;28;20472;-75
2021/08/03 16:53:45;;;;;;;5.15;1.50;;;;;;;;;;8250346;28;20510;-74
2021/08/03 16:57:50;;;;;;;2.40;1.40;;;;;;;;;;8220331;28;20359;-74
2021/08/03 17:01:58;;;;;;;5.55;1.63;;;;;;;;;;8229281;28;20412;-72
2021/08/03 17:06:11;;;;;;;3.22;1.40;;;;;;;;;;8230405;28;20064;-73
2021/08/03 17:10:20;;;;;;;8.80;2.72;;;;;;;;;;8210390;28;20468;-73
2021/08/03 17:14:29;;;;;;;10.57;2.13;;;;;;;;;;8211584;28;20519;-73
2021/08/03 17:18:34;;;;;;;3.13;1.52;;;;;;;;;;8228696;28;20475;-73
2021/08/03 17:22:40;;;;;;;7.35;1.60;;;;;;;;;;8211175;28;20400;-74
2021/08/03 17:26:47;;;;;;;4.35;1.90;;;;;;;;;;8211163;28;20492;-73
2021/08/03 17:30:52;;;;;;;2.22;1.40;;;;;;;;;;8210669;28;20388;-73
2021/08/03 17:35:00;;;;;;;7.20;2.25;;;;;;;;;;8210877;28;20060;-72
2021/08/03 17:39:07;;;;;;;5.82;2.22;;;;;;;;;;8194434;28;20522;-74
2021/08/03 17:43:13;;;;;;;6.97;2.13;;;;;;;;;;8194852;28;20356;-73
2021/08/03 17:47:23;;;;;;;2.90;1.77;;;;;;;;;;8228149;28;20379;-73
2021/08/03 17:51:30;;;;;;;5.03;1.80;;;;;;;;;;8211533;28;20045;-73
2021/08/03 17:55:37;;;;;;;6.20;2.30;;;;;;;;;;8227348;28;20045;-73
2021/08/03 17:59:46;;;;;;;4.72;1.83;;;;;;;;;;8209892;28;20500;-72
2021/08/03 18:03:53;;;;;;;3.45;1.88;;;;;;;;;;8228224;28;20480;-72
2021/08/03 18:07:59;;;;;;;2.75;2.00;;;;;;;;;;8208120;28;20503;-72
2021/08/03 18:12:06;;;;;;;3.35;2.10;;;;;;;;;;8208941;28;20380;-73
2021/08/03 18:16:14;;;;;;;3.72;2.08;;;;;;;;;;8227007;28;20393;-73
2021/08/03 18:20:28;;;;;;;2.47;1.85;;;;;;;;;;8377517;27;1250864;-73
2021/08/03 18:24:35;;;;;;;3.85;2.30;;;;;;;;;;8368867;28;20047;-72
2021/08/03 18:28:54;;;;;;;1.85;1.70;;;;;;;;;;8366940;28;20343;-73
2021/08/03 18:32:59;;;;;;;3.90;2.38;;;;;;;;;;8367652;28;20051;-72
2021/08/03 18:37:04;;;;;;;7.70;4.57;;;;;;;;;;8385228;28;20456;-72
2021/08/03 18:41:10;;;;;;;9.95;3.45;;;;;;;;;;8350771;28;20482;-73
2021/08/03 18:45:15;;;;;;;19.85;9.98;;;;;;;;;;8386561;28;20565;-73
2021/08/03 18:49:20;;;;;;;33.50;16.92;;;;;;;;;;8349759;28;20055;-73
2021/08/03 18:53:29;;;;;;;13.93;6.32;;;;;;;;;;8349970;28;20040;-73
2021/08/03 18:57:35;;;;;;;10.05;4.70;;;;;;;;;;8367765;28;20043;-73
2021/08/03 19:01:42;;;;;;;4.47;2.60;;;;;;;;;;8365935;28;20055;-72
2021/08/03 19:06:03;;;;;;;5.68;3.30;;;;;;;;;;8366374;28;20473;-72
2021/08/03 19:10:14;;;;;;;4.40;2.70;;;;;;;;;;8384506;28;20362;-72
2021/08/03 19:14:24;;;;;;;2.38;2.00;;;;;;;;;;8383694;28;20461;-73
2021/08/03 19:18:32;;;;;;;4.38;2.40;;;;;;;;;;8383232;27;20475;-72
2021/08/03 19:22:40;;;;;;;6.55;2.55;;;;;;;;;;8331940;28;20479;-72
2021/08/03 19:26:47;;;;;;;7.10;2.50;;;;;;;;;;8366860;28;20485;-73
2021/08/03 19:30:54;;;;;;;3.15;2.40;;;;;;;;;;8367959;28;20470;-73
2021/08/03 19:34:59;;;;;;;5.70;3.15;;;;;;;;;;8343119;28;20376;-72
2021/08/03 19:39:05;;;;;;;4.47;2.60;;;;;;;;;;8341603;28;20353;-73
2021/08/03 19:43:10;;;;;;;3.88;2.63;;;;;;;;;;8360008;28;20396;-73
2021/08/03 19:48:55;;;;;;;4.65;2.53;;;;;;;;;;8103972;27;1252387;-73
2021/08/03 19:53:06;;;;;;;4.20;2.33;;;;;;;;;;8267806;28;20460;-73
2021/08/03 19:57:11;;;;;;;4.43;2.70;;;;;;;;;;8286508;28;20055;-73
2021/08/03 20:01:17;;;;;;;4.20;2.65;;;;;;;;;;8185497;28;20467;-72
2021/08/03 20:05:25;;;;;;;5.78;2.42;;;;;;;;;;8181358;28;20340;-72
2021/08/03 20:09:30;;;;;;;6.90;2.92;;;;;;;;;;8299664;28;20501;-72
2021/08/03 20:13:36;;;;;;;6.95;2.58;;;;;;;;;;8318895;28;20389;-73
2021/08/03 20:17:42;;;;;;;5.18;2.80;;;;;;;;;;8300163;28;20386;-72
2021/08/03 20:21:48;;;;;;;4.95;2.88;;;;;;;;;;8284977;28;20351;-72
2021/08/03 20:25:57;;;;;;;7.78;2.25;;;;;;;;;;8300739;28;20370;-71
2021/08/03 20:30:06;;;;;;;5.10;2.70;;;;;;;;;;8299629;28;20416;-73
2021/08/03 20:34:16;;;;;;;3.05;2.28;;;;;;;;;;8320137;28;20071;-72
2021/08/03 20:38:24;;;;;;;3.38;2.25;;;;;;;;;;8299914;28;20371;-73
2021/08/03 20:42:29;;;;;;;4.47;2.53;;;;;;;;;;8317388;28;20359;-72
2021/08/03 20:46:35;;;;;;;5.22;3.20;;;;;;;;;;8298829;28;20356;-72
2021/08/03 20:50:41;;;;;;;6.05;2.80;;;;;;;;;;8284416;28;20347;-72
2021/08/03 20:54:46;;;;;;;8.07;2.45;;;;;;;;;;8299673;28;20479;-73
2021/08/03 20:58:51;;;;;;;5.28;2.65;;;;;;;;;;8303717;28;20375;-72
2021/08/03 21:02:59;;;;;;;5.30;2.17;;;;;;;;;;8276503;28;20409;-73
2021/08/03 21:07:07;;;;;;;4.47;2.35;;;;;;;;;;8277231;28;20398;-73
2021/08/03 21:11:11;;;;;;;3.03;1.95;;;;;;;;;;8277349;28;20075;-72
2021/08/03 21:15:16;;;;;;;5.40;1.98;;;;;;;;;;8277855;28;20467;-73
2021/08/03 21:19:40;;;;;;;2.88;1.80;;;;;;;;;;8279742;28;20359;-72
2021/08/03 21:24:06;;;;;;;3.97;2.30;;;;;;;;;;8292658;28;20379;-72
2021/08/03 21:28:30;;;;;;;3.35;1.70;;;;;;;;;;8293012;28;20486;-72
2021/08/03 21:32:54;;;;;;;2.83;1.88;;;;;;;;;;8278599;28;20382;-72
2021/08/03 21:37:18;;;;;;;2.35;1.90;;;;;;;;;;8278411;28;20379;-72
2021/08/03 21:41:42;;;;;;;3.45;1.63;;;;;;;;;;8294518;28;20443;-72
2021/08/03 21:46:05;;;;;;;3.85;1.85;;;;;;;;;;8277298;28;20353;-72
2021/08/03 21:50:29;;;;;;;6.30;1.60;;;;;;;;;;8294689;28;20036;-72
2021/08/03 21:54:34;;;;;;;3.03;1.52;;;;;;;;;;8293405;28;20474;-71
2021/08/03 21:58:39;;;;;;;2.58;1.48;;;;;;;;;;8276217;28;20351;-73
2021/08/03 22:02:45;;;;;;;1.67;1.40;;;;;;;;;;8292538;28;20383;-71
2021/08/03 22:06:54;;;;;;;5.63;3.33;;;;;;;;;;8276529;28;20462;-72
2021/08/03 22:10:59;;;;;;;4.95;2.17;;;;;;;;;;8292503;28;20067;-72
2021/08/03 22:15:06;;;;;;;2.75;1.63;;;;;;;;;;8293467;28;20045;-72
2021/08/03 22:19:11;;;;;;;3.92;1.40;;;;;;;;;;8273698;28;20463;-72
2021/08/03 22:23:17;;;;;;;4.80;2.10;;;;;;;;;;8274768;28;20463;-72
2021/08/03 22:27:24;;;;;;;3.33;1.33;;;;;;;;;;8273598;28;20487;-72
2021/08/03 22:31:30;;;;;;;2.67;1.60;;;;;;;;;;8291469;28;20533;-73
2021/08/03 22:35:35;;;;;;;4.32;1.70;;;;;;;;;;8291267;28;20374;-72
2021/08/03 22:39:40;;;;;;;5.22;1.98;;;;;;;;;;8274985;28;20363;-72
2021/08/03 22:43:45;;;;;;;3.38;1.85;;;;;;;;;;8293800;28;20056;-72
2021/08/03 22:47:50;;;;;;;3.58;1.80;;;;;;;;;;8290834;28;20362;-72
2021/08/03 22:51:56;;;;;;;3.22;2.00;;;;;;;;;;8292440;28;20382;-72
2021/08/03 22:56:01;;;;;;;4.53;2.03;;;;;;;;;;8205416;28;20411;-72
2021/08/03 23:00:07;;;;;;;9.95;1.88;;;;;;;;;;8221266;28;20380;-72
2021/08/03 23:04:12;;;;;;;9.65;2.28;;;;;;;;;;8220655;28;20623;-71
2021/08/03 23:08:17;;;;;;;3.25;1.70;;;;;;;;;;8220834;28;20077;-72
2021/08/03 23:12:22;;;;;;;2.60;1.88;;;;;;;;;;8220776;28;20054;-72
2021/08/03 23:16:27;;;;;;;5.65;1.80;;;;;;;;;;8204796;28;20703;-73
2021/08/03 23:20:32;;;;;;;5.78;2.17;;;;;;;;;;8221595;28;20456;-73
2021/08/03 23:24:37;;;;;;;6.38;2.50;;;;;;;;;;8224522;28;20399;-72
2021/08/03 23:28:43;;;;;;;2.53;1.90;;;;;;;;;;8273336;28;20048;-73
2021/08/03 23:32:49;;;;;;;4.32;2.47;;;;;;;;;;8257528;28;20367;-72
2021/08/03 23:36:53;;;;;;;3.92;2.60;;;;;;;;;;8272130;28;20351;-72
2021/08/03 23:40:57;;;;;;;3.65;2.50;;;;;;;;;;8271919;28;20103;-73
2021/08/03 23:45:02;;;;;;;6.85;2.58;;;;;;;;;;8289801;28;20336;-72
2021/08/03 23:49:06;;;;;;;4.97;2.85;;;;;;;;;;8289373;28;20383;-72
2021/08/03 23:53:11;;;;;;;3.63;2.33;;;;;;;;;;8289676;28;20494;-72
2021/08/03 23:57:16;;;;;;;3.28;2.17;;;;;;;;;;8291592;28;20455;-73
